sensor_id;sensor_type;location;lat;lon;timestamp;pressure;altitude;pressure_sealevel;temperature;humidity
71145;BME280;58812;47.698;17.726;2023-08-06T00:01:48;98877.22;;;15.93;100.00
71145;BME280;58812;47.698;17.726;2023-08-06T00:04:14;98869.97;;;15.94;100.00
71145;BME280;58812;47.698;17.726;2023-08-06T00:06:39;98877.84;;;15.95;100.00
71145;BME280;58812;47.698;17.726;2023-08-06T00:09:05;98894.88;;;15.96;100.00
71145;BME280;58812;47.698;17.726;2023-08-06T00:11:30;98890.69;;;16.00;100.00
71145;BME280;58812;47.698;17.726;2023-08-06T00:13:55;98895.72;;;15.96;100.00
71145;BME280;58812;47.698;17.726;2023-08-06T00:16:21;98891.75;;;15.99;100.00
71145;BME280;58812;47.698;17.726;2023-08-06T00:18:46;98885.31;;;15.93;100.00
71145;BME280;58812;47.698;17.726;2023-08-06T00:21:12;98884.69;;;15.98;100.00
71145;BME280;58812;47.698;17.726;2023-08-06T00:23:41;98882.59;;;16.00;100.00
71145;BME280;58812;47.698;17.726;2023-08-06T00:26:06;98893.38;;;16.00;100.00
71145;BME280;58812;47.698;17.726;2023-08-06T00:28:31;98899.84;;;15.99;100.00
71145;BME280;58812;47.698;17.726;2023-08-06T00:30:57;98910.22;;;16.02;100.00
71145;BME280;58812;47.698;17.726;2023-08-06T00:33:23;98914.38;;;15.98;100.00
71145;BME280;58812;47.698;17.726;2023-08-06T00:35:49;98916.84;;;15.99;100.00
71145;BME280;58812;47.698;17.726;2023-08-06T00:38:15;98922.69;;;15.96;100.00
71145;BME280;58812;47.698;17.726;2023-08-06T00:40:40;98927.28;;;15.96;100.00
71145;BME280;58812;47.698;17.726;2023-08-06T00:43:06;98918.53;;;15.94;100.00
71145;BME280;58812;47.698;17.726;2023-08-06T00:45:35;98921.03;;;15.89;100.00
71145;BME280;58812;47.698;17.726;2023-08-06T00:48:01;98919.19;;;15.96;100.00
71145;BME280;58812;47.698;17.726;2023-08-06T00:50:27;98922.25;;;15.99;100.00
71145;BME280;58812;47.698;17.726;2023-08-06T00:52:53;98917.31;;;15.96;100.00
71145;BME280;58812;47.698;17.726;2023-08-06T00:55:18;98911.47;;;15.99;100.00
71145;BME280;58812;47.698;17.726;2023-08-06T00:57:44;98904.41;;;15.98;100.00
71145;BME280;58812;47.698;17.726;2023-08-06T01:00:10;98889.53;;;15.89;100.00
71145;BME280;58812;47.698;17.726;2023-08-06T01:02:36;98900.28;;;15.96;100.00
71145;BME280;58812;47.698;17.726;2023-08-06T01:05:02;98899.66;;;15.94;100.00
71145;BME280;58812;47.698;17.726;2023-08-06T01:07:47;98901.09;;;15.96;100.00
71145;BME280;58812;47.698;17.726;2023-08-06T01:12:55;98896.94;;;15.94;100.00
71145;BME280;58812;47.698;17.726;2023-08-06T01:15:29;98891.13;;;15.97;100.00
71145;BME280;58812;47.698;17.726;2023-08-06T01:17:58;98892.00;;;15.91;100.00
71145;BME280;58812;47.698;17.726;2023-08-06T01:20:30;98883.91;;;15.91;100.00
71145;BME280;58812;47.698;17.726;2023-08-06T01:22:56;98886.56;;;15.97;100.00
71145;BME280;58812;47.698;17.726;2023-08-06T01:25:30;98895.28;;;15.93;100.00
71145;BME280;58812;47.698;17.726;2023-08-06T01:28:09;98888.22;;;15.98;100.00
71145;BME280;58812;47.698;17.726;2023-08-06T01:30:39;98883.22;;;16.02;100.00
71145;BME280;58812;47.698;17.726;2023-08-06T01:33:10;98879.31;;;15.91;100.00
71145;BME280;58812;47.698;17.726;2023-08-06T01:35:39;98880.41;;;15.84;100.00
71145;BME280;58812;47.698;17.726;2023-08-06T01:38:05;98871.44;;;15.90;100.00
71145;BME280;58812;47.698;17.726;2023-08-06T01:40:30;98863.72;;;15.93;100.00
71145;BME280;58812;47.698;17.726;2023-08-06T01:42:57;98860.03;;;15.88;100.00
71145;BME280;58812;47.698;17.726;2023-08-06T01:45:22;98856.31;;;15.82;100.00
71145;BME280;58812;47.698;17.726;2023-08-06T01:47:47;98850.09;;;15.82;100.00
71145;BME280;58812;47.698;17.726;2023-08-06T01:50:13;98855.72;;;15.80;100.00
71145;BME280;58812;47.698;17.726;2023-08-06T01:52:38;98858.63;;;15.79;100.00
71145;BME280;58812;47.698;17.726;2023-08-06T01:55:04;98849.75;;;15.71;100.00
71145;BME280;58812;47.698;17.726;2023-08-06T01:57:29;98840.19;;;15.69;100.00
71145;BME280;58812;47.698;17.726;2023-08-06T01:59:55;98848.47;;;15.74;100.00
71145;BME280;58812;47.698;17.726;2023-08-06T02:02:20;98849.09;;;15.69;100.00
71145;BME280;58812;47.698;17.726;2023-08-06T02:04:45;98850.37;;;15.67;100.00
71145;BME280;58812;47.698;17.726;2023-08-06T02:07:11;98844.16;;;15.66;100.00
71145;BME280;58812;47.698;17.726;2023-08-06T02:09:36;98846.03;;;15.66;100.00
71145;BME280;58812;47.698;17.726;2023-08-06T02:12:02;98852.25;;;15.66;100.00
71145;BME280;58812;47.698;17.726;2023-08-06T02:14:27;98837.72;;;15.67;100.00
71145;BME280;58812;47.698;17.726;2023-08-06T02:16:53;98834.19;;;15.60;100.00
71145;BME280;58812;47.698;17.726;2023-08-06T02:19:18;98845.62;;;15.62;100.00
71145;BME280;58812;47.698;17.726;2023-08-06T02:21:44;98840.22;;;15.62;100.00
71145;BME280;58812;47.698;17.726;2023-08-06T02:24:09;98840.41;;;15.67;100.00
71145;BME280;58812;47.698;17.726;2023-08-06T02:26:34;98841.03;;;15.56;100.00
71145;BME280;58812;47.698;17.726;2023-08-06T02:29:00;98842.31;;;15.54;100.00
71145;BME280;58812;47.698;17.726;2023-08-06T02:31:25;98829.00;;;15.52;100.00
71145;BME280;58812;47.698;17.726;2023-08-06T02:33:51;98816.38;;;15.46;100.00
71145;BME280;58812;47.698;17.726;2023-08-06T02:36:17;98819.72;;;15.48;100.00
71145;BME280;58812;47.698;17.726;2023-08-06T02:38:42;98812.03;;;15.45;100.00
71145;BME280;58812;47.698;17.726;2023-08-06T02:41:07;98808.28;;;15.46;100.00
71145;BME280;58812;47.698;17.726;2023-08-06T02:43:33;98801.69;;;15.42;100.00
71145;BME280;58812;47.698;17.726;2023-08-06T02:46:02;98798.38;;;15.40;100.00
71145;BME280;58812;47.698;17.726;2023-08-06T02:48:27;98790.50;;;15.38;100.00
71145;BME280;58812;47.698;17.726;2023-08-06T02:50:53;98781.37;;;15.33;100.00
71145;BME280;58812;47.698;17.726;2023-08-06T02:53:18;98784.69;;;15.35;100.00
71145;BME280;58812;47.698;17.726;2023-08-06T02:55:47;98780.16;;;15.29;100.00
71145;BME280;58812;47.698;17.726;2023-08-06T02:58:13;98771.47;;;15.27;100.00
71145;BME280;58812;47.698;17.726;2023-08-06T03:00:39;98779.53;;;15.27;100.00
71145;BME280;58812;47.698;17.726;2023-08-06T03:03:04;98774.41;;;15.18;100.00
71145;BME280;58812;47.698;17.726;2023-08-06T03:05:30;98780.63;;;15.19;100.00
71145;BME280;58812;47.698;17.726;2023-08-06T03:07:55;98789.94;;;15.16;100.00
71145;BME280;58812;47.698;17.726;2023-08-06T03:10:20;98788.91;;;15.11;100.00
71145;BME280;58812;47.698;17.726;2023-08-06T03:12:46;98782.47;;;15.12;100.00
71145;BME280;58812;47.698;17.726;2023-08-06T03:15:11;98799.31;;;15.07;100.00
71145;BME280;58812;47.698;17.726;2023-08-06T03:17:37;98793.69;;;15.09;100.00
71145;BME280;58812;47.698;17.726;2023-08-06T03:20:02;98798.50;;;15.07;100.00
71145;BME280;58812;47.698;17.726;2023-08-06T03:22:28;98795.97;;;15.05;100.00
71145;BME280;58812;47.698;17.726;2023-08-06T03:24:53;98800.16;;;15.01;100.00
71145;BME280;58812;47.698;17.726;2023-08-06T03:27:19;98798.50;;;15.00;100.00
71145;BME280;58812;47.698;17.726;2023-08-06T03:29:44;98785.22;;;14.99;100.00
71145;BME280;58812;47.698;17.726;2023-08-06T03:32:09;98791.03;;;14.95;100.00
71145;BME280;58812;47.698;17.726;2023-08-06T03:34:35;98780.66;;;14.99;100.00
71145;BME280;58812;47.698;17.726;2023-08-06T03:37:00;98788.56;;;15.01;100.00
71145;BME280;58812;47.698;17.726;2023-08-06T03:39:26;98791.44;;;14.99;100.00
71145;BME280;58812;47.698;17.726;2023-08-06T03:41:51;98790.63;;;14.99;100.00
71145;BME280;58812;47.698;17.726;2023-08-06T03:44:16;98792.91;;;14.95;100.00
71145;BME280;58812;47.698;17.726;2023-08-06T03:46:42;98795.19;;;14.98;100.00
71145;BME280;58812;47.698;17.726;2023-08-06T03:49:07;98794.78;;;14.94;100.00
71145;BME280;58812;47.698;17.726;2023-08-06T03:51:32;98789.59;;;14.93;100.00
71145;BME280;58812;47.698;17.726;2023-08-06T03:53:58;98798.72;;;14.92;100.00
71145;BME280;58812;47.698;17.726;2023-08-06T03:56:23;98781.72;;;14.91;100.00
71145;BME280;58812;47.698;17.726;2023-08-06T03:58:49;98785.69;;;14.89;100.00
71145;BME280;58812;47.698;17.726;2023-08-06T04:01:14;98786.09;;;14.86;100.00
71145;BME280;58812;47.698;17.726;2023-08-06T04:03:40;98784.84;;;14.82;100.00
71145;BME280;58812;47.698;17.726;2023-08-06T04:06:06;98785.47;;;14.84;100.00
71145;BME280;58812;47.698;17.726;2023-08-06T04:08:31;98793.12;;;14.80;100.00
71145;BME280;58812;47.698;17.726;2023-08-06T04:10:57;98798.94;;;14.84;100.00
71145;BME280;58812;47.698;17.726;2023-08-06T04:13:22;98789.63;;;14.80;100.00
71145;BME280;58812;47.698;17.726;2023-08-06T04:15:48;98776.97;;;14.80;100.00
71145;BME280;58812;47.698;17.726;2023-08-06T04:18:13;98781.13;;;14.83;100.00
71145;BME280;58812;47.698;17.726;2023-08-06T04:20:48;98786.53;;;14.83;100.00
71145;BME280;58812;47.698;17.726;2023-08-06T04:23:14;98786.53;;;14.83;100.00
71145;BME280;58812;47.698;17.726;2023-08-06T04:25:40;98781.97;;;14.77;100.00
71145;BME280;58812;47.698;17.726;2023-08-06T04:28:07;98793.12;;;14.80;100.00
71145;BME280;58812;47.698;17.726;2023-08-06T04:30:33;98791.50;;;14.79;100.00
71145;BME280;58812;47.698;17.726;2023-08-06T04:32:58;98787.34;;;14.83;100.00
71145;BME280;58812;47.698;17.726;2023-08-06T04:35:24;98801.84;;;14.76;100.00
71145;BME280;58812;47.698;17.726;2023-08-06T04:37:49;98786.94;;;14.73;100.00
71145;BME280;58812;47.698;17.726;2023-08-06T04:40:15;98794.19;;;14.73;100.00
71145;BME280;58812;47.698;17.726;2023-08-06T04:42:40;98801.84;;;14.76;100.00
71145;BME280;58812;47.698;17.726;2023-08-06T04:45:06;98800.62;;;14.72;100.00
71145;BME280;58812;47.698;17.726;2023-08-06T04:47:32;98800.62;;;14.72;100.00
71145;BME280;58812;47.698;17.726;2023-08-06T04:49:57;98810.13;;;14.74;100.00
71145;BME280;58812;47.698;17.726;2023-08-06T04:52:23;98813.25;;;14.78;100.00
71145;BME280;58812;47.698;17.726;2023-08-06T04:54:48;98809.75;;;14.77;100.00
71145;BME280;58812;47.698;17.726;2023-08-06T04:57:13;98803.94;;;14.74;100.00
71145;BME280;58812;47.698;17.726;2023-08-06T04:59:39;98797.72;;;14.73;100.00
71145;BME280;58812;47.698;17.726;2023-08-06T05:02:04;98794.81;;;14.75;100.00
71145;BME280;58812;47.698;17.726;2023-08-06T05:04:30;98784.25;;;14.73;100.00
71145;BME280;58812;47.698;17.726;2023-08-06T05:06:55;98788.19;;;14.77;100.00
71145;BME280;58812;47.698;17.726;2023-08-06T05:09:21;98795.63;;;14.82;100.00
71145;BME280;58812;47.698;17.726;2023-08-06T05:11:47;98804.13;;;14.79;100.00
71145;BME280;58812;47.698;17.726;2023-08-06T05:14:12;98795.44;;;14.77;100.00
71145;BME280;58812;47.698;17.726;2023-08-06T05:16:39;98796.87;;;14.73;100.00
71145;BME280;58812;47.698;17.726;2023-08-06T05:19:04;98791.06;;;14.76;100.00
71145;BME280;58812;47.698;17.726;2023-08-06T05:21:29;98791.28;;;14.74;100.00
71145;BME280;58812;47.698;17.726;2023-08-06T05:23:55;98791.28;;;14.74;100.00
71145;BME280;58812;47.698;17.726;2023-08-06T05:26:20;98793.16;;;14.74;100.00
71145;BME280;58812;47.698;17.726;2023-08-06T05:28:46;98794.81;;;14.75;100.00
71145;BME280;58812;47.698;17.726;2023-08-06T05:31:12;98798.13;;;14.77;100.00
71145;BME280;58812;47.698;17.726;2023-08-06T05:33:37;98800.62;;;14.72;100.00
71145;BME280;58812;47.698;17.726;2023-08-06T05:36:03;98810.34;;;14.73;100.00
71145;BME280;58812;47.698;17.726;2023-08-06T05:38:29;98807.88;;;14.78;100.00
71145;BME280;58812;47.698;17.726;2023-08-06T05:40:55;98810.13;;;14.81;100.00
71145;BME280;58812;47.698;17.726;2023-08-06T05:43:20;98804.75;;;14.81;100.00
71145;BME280;58812;47.698;17.726;2023-08-06T05:45:46;98807.22;;;14.76;100.00
71145;BME280;58812;47.698;17.726;2023-08-06T05:48:12;98802.69;;;14.83;100.00
71145;BME280;58812;47.698;17.726;2023-08-06T05:50:37;98792.91;;;14.82;100.00
71145;BME280;58812;47.698;17.726;2023-08-06T05:53:03;98789.19;;;14.89;100.00
71145;BME280;58812;47.698;17.726;2023-08-06T05:55:28;98782.78;;;14.84;100.00
71145;BME280;58812;47.698;17.726;2023-08-06T05:57:54;98770.34;;;14.89;100.00
71145;BME280;58812;47.698;17.726;2023-08-06T06:00:21;98774.69;;;14.90;100.00
71145;BME280;58812;47.698;17.726;2023-08-06T06:02:46;98768.03;;;14.93;100.00
71145;BME280;58812;47.698;17.726;2023-08-06T06:05:12;98771.53;;;14.93;100.00
71145;BME280;58812;47.698;17.726;2023-08-06T06:07:37;98771.12;;;14.96;100.00
71145;BME280;58812;47.698;17.726;2023-08-06T06:10:03;98763.88;;;14.97;100.00
71145;BME280;58812;47.698;17.726;2023-08-06T06:12:28;98771.94;;;15.04;100.00
71145;BME280;58812;47.698;17.726;2023-08-06T06:14:54;98769.84;;;15.06;100.00
71145;BME280;58812;47.698;17.726;2023-08-06T06:17:19;98766.53;;;15.10;100.00
71145;BME280;58812;47.698;17.726;2023-08-06T06:19:45;98764.03;;;15.15;100.00
71145;BME280;58812;47.698;17.726;2023-08-06T06:22:10;98771.06;;;15.16;100.00
71145;BME280;58812;47.698;17.726;2023-08-06T06:24:36;98758.22;;;15.18;100.00
71145;BME280;58812;47.698;17.726;2023-08-06T06:27:01;98762.56;;;15.19;100.00
71145;BME280;58812;47.698;17.726;2023-08-06T06:29:27;98760.69;;;15.27;100.00
71145;BME280;58812;47.698;17.726;2023-08-06T06:31:52;98771.88;;;15.23;100.00
71145;BME280;58812;47.698;17.726;2023-08-06T06:34:17;98768.97;;;15.25;100.00
71145;BME280;58812;47.698;17.726;2023-08-06T06:36:43;98778.94;;;15.25;100.00
71145;BME280;58812;47.698;17.726;2023-08-06T06:39:08;98764.78;;;15.29;100.00
71145;BME280;58812;47.698;17.726;2023-08-06T06:41:34;98773.09;;;15.28;100.00
71145;BME280;58812;47.698;17.726;2023-08-06T06:43:59;98779.28;;;15.35;100.00
71145;BME280;58812;47.698;17.726;2023-08-06T06:46:24;98780.72;;;15.44;100.00
71145;BME280;58812;47.698;17.726;2023-08-06T06:48:50;98781.31;;;15.46;100.00
71145;BME280;58812;47.698;17.726;2023-08-06T06:51:15;98796.87;;;15.50;100.00
71145;BME280;58812;47.698;17.726;2023-08-06T06:53:41;98797.28;;;15.54;100.00
71145;BME280;58812;47.698;17.726;2023-08-06T06:56:06;98794.13;;;15.57;100.00
71145;BME280;58812;47.698;17.726;2023-08-06T06:58:32;98799.31;;;15.59;100.00
71145;BME280;58812;47.698;17.726;2023-08-06T07:00:58;98803.28;;;15.63;100.00
71145;BME280;58812;47.698;17.726;2023-08-06T07:03:23;98810.72;;;15.67;100.00
71145;BME280;58812;47.698;17.726;2023-08-06T07:05:49;98821.94;;;15.64;100.00
71145;BME280;58812;47.698;17.726;2023-08-06T07:08:15;98817.78;;;15.62;100.00
71145;BME280;58812;47.698;17.726;2023-08-06T07:10:41;98832.69;;;15.71;100.00
71145;BME280;58812;47.698;17.726;2023-08-06T07:13:08;98833.97;;;15.68;100.00
71145;BME280;58812;47.698;17.726;2023-08-06T07:15:33;98835.63;;;15.69;100.00
71145;BME280;58812;47.698;17.726;2023-08-06T07:17:59;98841.00;;;15.69;100.00
71145;BME280;58812;47.698;17.726;2023-08-06T07:20:24;98843.28;;;15.72;100.00
71145;BME280;58812;47.698;17.726;2023-08-06T07:22:50;98844.09;;;15.80;100.00
71145;BME280;58812;47.698;17.726;2023-08-06T07:25:16;98842.00;;;15.82;100.00
71145;BME280;58812;47.698;17.726;2023-08-06T07:27:42;98845.56;;;15.75;100.00
71145;BME280;58812;47.698;17.726;2023-08-06T07:30:07;98842.22;;;15.80;100.00
71145;BME280;58812;47.698;17.726;2023-08-06T07:32:33;98844.69;;;15.82;100.00
71145;BME280;58812;47.698;17.726;2023-08-06T07:34:59;98838.88;;;15.85;100.00
71145;BME280;58812;47.698;17.726;2023-08-06T07:37:28;98846.75;;;15.86;100.00
71145;BME280;58812;47.698;17.726;2023-08-06T07:39:54;98855.06;;;15.85;100.00
71145;BME280;58812;47.698;17.726;2023-08-06T07:42:20;98844.28;;;15.85;100.00
71145;BME280;58812;47.698;17.726;2023-08-06T07:44:53;98843.44;;;15.84;100.00
71145;BME280;58812;47.698;17.726;2023-08-06T07:47:19;98852.38;;;15.85;100.00
71145;BME280;58812;47.698;17.726;2023-08-06T07:49:44;98856.94;;;15.84;100.00
71145;BME280;58812;47.698;17.726;2023-08-06T07:52:10;98855.91;;;15.85;100.00
71145;BME280;58812;47.698;17.726;2023-08-06T07:54:36;98850.09;;;15.82;100.00
71145;BME280;58812;47.698;17.726;2023-08-06T07:57:01;98848.84;;;15.84;100.00
71145;BME280;58812;47.698;17.726;2023-08-06T07:59:27;98846.75;;;15.86;100.00
71145;BME280;58812;47.698;17.726;2023-08-06T08:01:52;98833.03;;;15.88;100.00
71145;BME280;58812;47.698;17.726;2023-08-06T08:04:17;98833.81;;;15.95;100.00
71145;BME280;58812;47.698;17.726;2023-08-06T08:06:43;98818.84;;;15.99;100.00
71145;BME280;58812;47.698;17.726;2023-08-06T08:09:08;98824.44;;;16.04;100.00
71145;BME280;58812;47.698;17.726;2023-08-06T08:11:34;98821.75;;;16.04;100.00
71145;BME280;58812;47.698;17.726;2023-08-06T08:13:59;98823.22;;;16.00;100.00
71145;BME280;58812;47.698;17.726;2023-08-06T08:16:24;98828.78;;;16.05;100.00
71145;BME280;58812;47.698;17.726;2023-08-06T08:18:50;98846.22;;;16.09;100.00
71145;BME280;58812;47.698;17.726;2023-08-06T08:21:15;98844.94;;;16.12;100.00
71145;BME280;58812;47.698;17.726;2023-08-06T08:23:41;98855.78;;;16.05;100.00
71145;BME280;58812;47.698;17.726;2023-08-06T08:26:07;98858.47;;;16.05;100.00
71145;BME280;58812;47.698;17.726;2023-08-06T08:28:32;98854.12;;;16.04;100.00
71145;BME280;58812;47.698;17.726;2023-08-06T08:30:58;98859.13;;;16.00;100.00
71145;BME280;58812;47.698;17.726;2023-08-06T08:33:23;98863.69;;;16.00;100.00
71145;BME280;58812;47.698;17.726;2023-08-06T08:35:49;98862.88;;;15.99;100.00
71145;BME280;58812;47.698;17.726;2023-08-06T08:38:14;98872.84;;;15.99;100.00
71145;BME280;58812;47.698;17.726;2023-08-06T08:40:51;98862.88;;;15.99;100.00
71145;BME280;58812;47.698;17.726;2023-08-06T08:43:20;98864.16;;;15.97;100.00
71145;BME280;58812;47.698;17.726;2023-08-06T08:45:51;98861.62;;;16.02;100.00
71145;BME280;58812;47.698;17.726;2023-08-06T08:48:19;98856.84;;;16.04;100.00
71145;BME280;58812;47.698;17.726;2023-08-06T08:50:46;98854.53;;;16.08;100.00
71145;BME280;58812;47.698;17.726;2023-08-06T08:53:16;98855.75;;;16.12;100.00
71145;BME280;58812;47.698;17.726;2023-08-06T08:55:47;98842.19;;;16.18;100.00
71145;BME280;58812;47.698;17.726;2023-08-06T08:58:14;98837.59;;;16.25;100.00
71145;BME280;58812;47.698;17.726;2023-08-06T09:00:45;98827.63;;;16.26;100.00
71145;BME280;58812;47.698;17.726;2023-08-06T09:03:11;98835.69;;;16.33;100.00
71145;BME280;58812;47.698;17.726;2023-08-06T09:05:37;98834.97;;;16.44;100.00
71145;BME280;58812;47.698;17.726;2023-08-06T09:08:05;98836.84;;;16.43;100.00
71145;BME280;58812;47.698;17.726;2023-08-06T09:10:30;98845.13;;;16.48;100.00
71145;BME280;58812;47.698;17.726;2023-08-06T09:12:57;98841.19;;;16.44;100.00
71145;BME280;58812;47.698;17.726;2023-08-06T09:15:26;98839.66;;;16.55;100.00
71145;BME280;58812;47.698;17.726;2023-08-06T09:17:52;98846.59;;;16.69;100.00
71145;BME280;58812;47.698;17.726;2023-08-06T09:20:18;98851.16;;;16.75;100.00
71145;BME280;58812;47.698;17.726;2023-08-06T09:22:43;98846.75;;;16.81;100.00
71145;BME280;58812;47.698;17.726;2023-08-06T09:25:10;98849.84;;;16.85;100.00
71145;BME280;58812;47.698;17.726;2023-08-06T09:27:39;98852.56;;;16.85;100.00
71145;BME280;58812;47.698;17.726;2023-08-06T09:30:06;98846.09;;;16.86;100.00
71145;BME280;58812;47.698;17.726;2023-08-06T09:32:48;98847.97;;;16.85;100.00
71145;BME280;58812;47.698;17.726;2023-08-06T09:35:17;98854.97;;;16.93;100.00
71145;BME280;58812;47.698;17.726;2023-08-06T09:37:43;98852.69;;;16.90;100.00
71145;BME280;58812;47.698;17.726;2023-08-06T09:40:27;98856.63;;;16.94;100.00
71145;BME280;58812;47.698;17.726;2023-08-06T09:42:53;98860.53;;;16.98;100.00
71145;BME280;58812;47.698;17.726;2023-08-06T09:45:19;98860.47;;;17.04;100.00
71145;BME280;58812;47.698;17.726;2023-08-06T09:47:44;98856.22;;;17.15;100.00
71145;BME280;58812;47.698;17.726;2023-08-06T09:50:19;98858.28;;;17.13;100.00
71145;BME280;58812;47.698;17.726;2023-08-06T09:52:48;98862.88;;;17.13;100.00
71145;BME280;58812;47.698;17.726;2023-08-06T09:55:15;98871.22;;;17.11;100.00
71145;BME280;58812;47.698;17.726;2023-08-06T09:57:41;98861.16;;;17.18;100.00
71145;BME280;58812;47.698;17.726;2023-08-06T10:00:09;98882.63;;;17.13;100.00
71145;BME280;58812;47.698;17.726;2023-08-06T10:02:38;98879.56;;;17.09;100.00
71145;BME280;58812;47.698;17.726;2023-08-06T10:05:05;98883.09;;;17.10;100.00
71145;BME280;58812;47.698;17.726;2023-08-06T10:07:31;98874.16;;;17.09;100.00
71145;BME280;58812;47.698;17.726;2023-08-06T10:09:56;98886.84;;;17.09;100.00
71145;BME280;58812;47.698;17.726;2023-08-06T10:12:23;98883.25;;;17.15;100.00
71145;BME280;58812;47.698;17.726;2023-08-06T10:14:51;98894.81;;;17.22;100.00
71145;BME280;58812;47.698;17.726;2023-08-06T10:17:19;98899.56;;;17.27;100.00
71145;BME280;58812;47.698;17.726;2023-08-06T10:19:46;98903.09;;;17.27;100.00
71145;BME280;58812;47.698;17.726;2023-08-06T10:22:13;98887.53;;;17.23;100.00
71145;BME280;58812;47.698;17.726;2023-08-06T10:24:56;98905.16;;;17.32;100.00
71145;BME280;58812;47.698;17.726;2023-08-06T10:27:32;98908.59;;;17.39;100.00
71145;BME280;58812;47.698;17.726;2023-08-06T10:30:22;98909.59;;;17.45;100.00
71145;BME280;58812;47.698;17.726;2023-08-06T10:32:50;98899.34;;;17.47;100.00
71145;BME280;58812;47.698;17.726;2023-08-06T10:35:29;98916.16;;;17.55;100.00
71145;BME280;58812;47.698;17.726;2023-08-06T10:38:08;98913.47;;;17.49;99.03
71145;BME280;58812;47.698;17.726;2023-08-06T10:40:35;98909.22;;;17.59;99.90
71145;BME280;58812;47.698;17.726;2023-08-06T10:43:02;98913.94;;;17.64;98.62
71145;BME280;58812;47.698;17.726;2023-08-06T10:45:28;98905.59;;;17.66;98.75
71145;BME280;58812;47.698;17.726;2023-08-06T10:47:55;98909.75;;;17.68;97.73
71145;BME280;58812;47.698;17.726;2023-08-06T10:50:22;98922.41;;;17.74;98.08
71145;BME280;58812;47.698;17.726;2023-08-06T10:52:48;98913.94;;;17.64;96.11
71145;BME280;58812;47.698;17.726;2023-08-06T10:55:22;98910.97;;;17.72;96.29
71145;BME280;58812;47.698;17.726;2023-08-06T10:57:48;98924.78;;;17.64;94.48
71145;BME280;58812;47.698;17.726;2023-08-06T11:00:14;98918.87;;;17.74;95.63
71145;BME280;58812;47.698;17.726;2023-08-06T11:02:39;98915.94;;;17.75;94.56
71145;BME280;58812;47.698;17.726;2023-08-06T11:05:09;98922.25;;;17.87;95.04
71145;BME280;58812;47.698;17.726;2023-08-06T11:07:35;98931.59;;;17.92;94.95
71145;BME280;58812;47.698;17.726;2023-08-06T11:10:05;98936.25;;;18.03;93.64
71145;BME280;58812;47.698;17.726;2023-08-06T11:12:31;98936.66;;;18.18;93.89
71145;BME280;58812;47.698;17.726;2023-08-06T11:14:57;98940.19;;;18.19;93.41
71145;BME280;58812;47.698;17.726;2023-08-06T11:17:23;98949.56;;;18.34;94.58
71145;BME280;58812;47.698;17.726;2023-08-06T11:19:48;98948.06;;;18.38;92.93
71145;BME280;58812;47.698;17.726;2023-08-06T11:22:17;98944.22;;;18.46;92.65
71145;BME280;58812;47.698;17.726;2023-08-06T11:24:43;98949.00;;;18.32;92.82
71145;BME280;58812;47.698;17.726;2023-08-06T11:27:15;98943.97;;;18.48;93.77
71145;BME280;58812;47.698;17.726;2023-08-06T11:29:42;98954.75;;;18.66;93.39
71145;BME280;58812;47.698;17.726;2023-08-06T11:32:08;98952.38;;;18.58;92.71
71145;BME280;58812;47.698;17.726;2023-08-06T11:34:35;98959.34;;;18.95;91.74
71145;BME280;58812;47.698;17.726;2023-08-06T11:37:00;98960.94;;;18.73;90.28
71145;BME280;58812;47.698;17.726;2023-08-06T11:39:28;98973.44;;;18.74;90.27
71145;BME280;58812;47.698;17.726;2023-08-06T11:41:54;98980.09;;;19.02;90.19
71145;BME280;58812;47.698;17.726;2023-08-06T11:44:19;98981.03;;;18.95;90.16
71145;BME280;58812;47.698;17.726;2023-08-06T11:46:57;98980.81;;;19.09;90.27
71145;BME280;58812;47.698;17.726;2023-08-06T11:49:42;98987.44;;;19.13;88.83
71145;BME280;58812;47.698;17.726;2023-08-06T11:52:12;98980.84;;;19.32;87.98
71145;BME280;58812;47.698;17.726;2023-08-06T11:54:38;98981.47;;;19.34;87.13
71145;BME280;58812;47.698;17.726;2023-08-06T11:57:05;98984.19;;;19.58;86.19
71145;BME280;58812;47.698;17.726;2023-08-06T11:59:31;98986.66;;;19.47;85.86
71145;BME280;58812;47.698;17.726;2023-08-06T12:01:57;98986.28;;;19.32;85.00
71145;BME280;58812;47.698;17.726;2023-08-06T12:04:22;98991.00;;;19.25;84.90
71145;BME280;58812;47.698;17.726;2023-08-06T12:06:47;98988.78;;;19.22;84.86
71145;BME280;58812;47.698;17.726;2023-08-06T12:09:13;98994.09;;;19.40;84.00
71145;BME280;58812;47.698;17.726;2023-08-06T12:11:41;99006.00;;;19.16;85.24
71145;BME280;58812;47.698;17.726;2023-08-06T12:14:09;98991.22;;;19.12;84.18
71145;BME280;58812;47.698;17.726;2023-08-06T12:16:35;99002.28;;;18.99;83.91
71145;BME280;58812;47.698;17.726;2023-08-06T12:19:01;98999.41;;;18.82;83.80
71145;BME280;58812;47.698;17.726;2023-08-06T12:21:26;99006.25;;;18.84;82.97
71145;BME280;58812;47.698;17.726;2023-08-06T12:23:52;99014.06;;;18.92;82.24
71145;BME280;58812;47.698;17.726;2023-08-06T12:26:17;99006.69;;;19.11;83.09
71145;BME280;58812;47.698;17.726;2023-08-06T12:28:42;99012.38;;;18.80;82.28
71145;BME280;58812;47.698;17.726;2023-08-06T12:31:08;99015.56;;;18.88;83.06
71145;BME280;58812;47.698;17.726;2023-08-06T12:33:33;99018.09;;;18.72;83.79
71145;BME280;58812;47.698;17.726;2023-08-06T12:36:00;99026.03;;;18.85;83.34
71145;BME280;58812;47.698;17.726;2023-08-06T12:38:25;99018.56;;;18.68;82.00
71145;BME280;58812;47.698;17.726;2023-08-06T12:40:50;99019.31;;;18.76;82.75